sensor_id;sensor_type;location;lat;lon;timestamp;temperature;humidity
13072;DHT22;6602;58.934;11.166;2023-04-29T00:03:10;3.90;99.90
13072;DHT22;6602;58.934;11.166;2023-04-29T00:08:12;3.90;99.90
13072;DHT22;6602;58.934;11.166;2023-04-29T00:13:13;3.90;99.90
13072;DHT22;6602;58.934;11.166;2023-04-29T00:18:17;3.90;99.90
13072;DHT22;6602;58.934;11.166;2023-04-29T00:23:20;3.80;99.90
13072;DHT22;6602;58.934;11.166;2023-04-29T00:28:24;3.80;99.90
13072;DHT22;6602;58.934;11.166;2023-04-29T00:33:25;3.80;99.90
13072;DHT22;6602;58.934;11.166;2023-04-29T00:38:29;3.70;99.90
13072;DHT22;6602;58.934;11.166;2023-04-29T00:43:35;3.70;99.90
13072;DHT22;6602;58.934;11.166;2023-04-29T00:48:36;3.60;99.90
13072;DHT22;6602;58.934;11.166;2023-04-29T00:53:38;3.50;99.90
13072;DHT22;6602;58.934;11.166;2023-04-29T00:58:39;3.60;99.90
13072;DHT22;6602;58.934;11.166;2023-04-29T01:03:40;3.70;99.90
13072;DHT22;6602;58.934;11.166;2023-04-29T01:14:11;4.00;99.90
13072;DHT22;6602;58.934;11.166;2023-04-29T01:24:32;3.90;99.90
13072;DHT22;6602;58.934;11.166;2023-04-29T01:30:44;3.80;99.90
13072;DHT22;6602;58.934;11.166;2023-04-29T01:40:53;3.80;99.90
13072;DHT22;6602;58.934;11.166;2023-04-29T01:46:01;3.80;99.90
13072;DHT22;6602;58.934;11.166;2023-04-29T01:51:03;3.90;99.90
13072;DHT22;6602;58.934;11.166;2023-04-29T01:56:06;3.90;99.90
13072;DHT22;6602;58.934;11.166;2023-04-29T02:01:09;3.90;99.90
13072;DHT22;6602;58.934;11.166;2023-04-29T02:06:11;3.90;99.90
13072;DHT22;6602;58.934;11.166;2023-04-29T02:11:24;3.90;99.90
13072;DHT22;6602;58.934;11.166;2023-04-29T02:16:25;4.00;99.90
13072;DHT22;6602;58.934;11.166;2023-04-29T02:21:26;3.90;99.90
13072;DHT22;6602;58.934;11.166;2023-04-29T02:26:27;3.90;99.90
13072;DHT22;6602;58.934;11.166;2023-04-29T02:31:28;3.90;99.90
13072;DHT22;6602;58.934;11.166;2023-04-29T02:36:29;4.00;99.90
13072;DHT22;6602;58.934;11.166;2023-04-29T02:41:31;4.10;99.90
13072;DHT22;6602;58.934;11.166;2023-04-29T02:46:31;4.10;99.90
13072;DHT22;6602;58.934;11.166;2023-04-29T02:51:34;4.20;99.90
13072;DHT22;6602;58.934;11.166;2023-04-29T02:56:35;4.30;99.90
13072;DHT22;6602;58.934;11.166;2023-04-29T03:01:36;4.30;99.90
13072;DHT22;6602;58.934;11.166;2023-04-29T03:06:38;4.40;99.90
13072;DHT22;6602;58.934;11.166;2023-04-29T03:11:39;4.50;99.90
13072;DHT22;6602;58.934;11.166;2023-04-29T03:16:43;4.60;99.90
13072;DHT22;6602;58.934;11.166;2023-04-29T03:21:44;4.70;99.90
13072;DHT22;6602;58.934;11.166;2023-04-29T03:26:46;4.80;99.90
13072;DHT22;6602;58.934;11.166;2023-04-29T03:31:47;4.90;99.90
13072;DHT22;6602;58.934;11.166;2023-04-29T03:36:51;5.00;99.90
13072;DHT22;6602;58.934;11.166;2023-04-29T03:41:52;5.10;99.90
13072;DHT22;6602;58.934;11.166;2023-04-29T03:46:53;5.20;99.90
13072;DHT22;6602;58.934;11.166;2023-04-29T03:51:53;5.40;99.90
13072;DHT22;6602;58.934;11.166;2023-04-29T03:56:57;5.50;99.90
13072;DHT22;6602;58.934;11.166;2023-04-29T04:02:01;5.60;99.90
13072;DHT22;6602;58.934;11.166;2023-04-29T04:07:04;5.70;99.90
13072;DHT22;6602;58.934;11.166;2023-04-29T04:12:05;5.80;99.90
13072;DHT22;6602;58.934;11.166;2023-04-29T04:17:06;5.90;99.90
13072;DHT22;6602;58.934;11.166;2023-04-29T04:22:08;6.00;99.90
13072;DHT22;6602;58.934;11.166;2023-04-29T04:27:08;6.10;99.90
13072;DHT22;6602;58.934;11.166;2023-04-29T04:32:13;6.20;99.90
13072;DHT22;6602;58.934;11.166;2023-04-29T04:37:14;6.30;99.90
13072;DHT22;6602;58.934;11.166;2023-04-29T04:42:15;6.50;99.90
13072;DHT22;6602;58.934;11.166;2023-04-29T04:47:18;6.70;99.90
13072;DHT22;6602;58.934;11.166;2023-04-29T04:52:20;7.00;99.90
13072;DHT22;6602;58.934;11.166;2023-04-29T04:57:21;7.40;99.90
13072;DHT22;6602;58.934;11.166;2023-04-29T05:02:22;7.70;99.90
13072;DHT22;6602;58.934;11.166;2023-04-29T05:07:25;7.90;99.90
13072;DHT22;6602;58.934;11.166;2023-04-29T05:12:27;8.00;99.90
13072;DHT22;6602;58.934;11.166;2023-04-29T05:17:34;7.90;99.90
13072;DHT22;6602;58.934;11.166;2023-04-29T05:22:37;7.90;99.90
13072;DHT22;6602;58.934;11.166;2023-04-29T05:27:50;7.90;99.90
13072;DHT22;6602;58.934;11.166;2023-04-29T05:32:54;8.00;99.90
13072;DHT22;6602;58.934;11.166;2023-04-29T05:37:55;8.00;99.90
13072;DHT22;6602;58.934;11.166;2023-04-29T05:42:59;8.00;99.90
13072;DHT22;6602;58.934;11.166;2023-04-29T05:48:01;8.10;99.90
13072;DHT22;6602;58.934;11.166;2023-04-29T05:53:03;8.10;99.90
13072;DHT22;6602;58.934;11.166;2023-04-29T05:58:12;8.10;99.90
13072;DHT22;6602;58.934;11.166;2023-04-29T06:03:14;8.20;99.90
13072;DHT22;6602;58.934;11.166;2023-04-29T06:08:37;8.20;99.90
13072;DHT22;6602;58.934;11.166;2023-04-29T06:13:44;8.20;99.90
13072;DHT22;6602;58.934;11.166;2023-04-29T06:18:45;8.20;99.90
13072;DHT22;6602;58.934;11.166;2023-04-29T06:24:03;8.20;99.90
13072;DHT22;6602;58.934;11.166;2023-04-29T06:29:04;8.20;99.90
13072;DHT22;6602;58.934;11.166;2023-04-29T06:34:12;8.20;99.90
13072;DHT22;6602;58.934;11.166;2023-04-29T06:39:13;8.00;99.90
13072;DHT22;6602;58.934;11.166;2023-04-29T06:44:20;7.90;99.90
13072;DHT22;6602;58.934;11.166;2023-04-29T06:49:25;7.80;99.90
13072;DHT22;6602;58.934;11.166;2023-04-29T06:54:27;7.90;99.90
13072;DHT22;6602;58.934;11.166;2023-04-29T06:59:28;7.90;99.90
13072;DHT22;6602;58.934;11.166;2023-04-29T07:04:30;7.90;99.90
13072;DHT22;6602;58.934;11.166;2023-04-29T07:09:31;7.80;99.90
13072;DHT22;6602;58.934;11.166;2023-04-29T07:14:33;7.80;99.90
13072;DHT22;6602;58.934;11.166;2023-04-29T07:19:40;7.70;99.90
13072;DHT22;6602;58.934;11.166;2023-04-29T07:25:20;7.60;99.90
13072;DHT22;6602;58.934;11.166;2023-04-29T07:30:23;7.50;99.90
13072;DHT22;6602;58.934;11.166;2023-04-29T07:35:41;7.50;99.90
13072;DHT22;6602;58.934;11.166;2023-04-29T07:41:04;7.50;99.90
13072;DHT22;6602;58.934;11.166;2023-04-29T07:46:45;7.60;99.90
13072;DHT22;6602;58.934;11.166;2023-04-29T07:51:52;7.60;99.90
13072;DHT22;6602;58.934;11.166;2023-04-29T07:57:04;7.60;99.90
13072;DHT22;6602;58.934;11.166;2023-04-29T08:02:25;7.60;99.90
13072;DHT22;6602;58.934;11.166;2023-04-29T08:07:30;7.70;99.90
13072;DHT22;6602;58.934;11.166;2023-04-29T08:12:34;7.90;99.90
13072;DHT22;6602;58.934;11.166;2023-04-29T08:17:43;8.10;99.90
13072;DHT22;6602;58.934;11.166;2023-04-29T08:22:46;8.10;99.90
13072;DHT22;6602;58.934;11.166;2023-04-29T08:27:50;8.30;99.90
13072;DHT22;6602;58.934;11.166;2023-04-29T08:32:51;8.60;99.90
13072;DHT22;6602;58.934;11.166;2023-04-29T08:37:52;8.60;99.90
13072;DHT22;6602;58.934;11.166;2023-04-29T08:43:03;8.50;99.90
13072;DHT22;6602;58.934;11.166;2023-04-29T08:48:08;8.50;99.90
13072;DHT22;6602;58.934;11.166;2023-04-29T08:53:12;8.50;99.90
13072;DHT22;6602;58.934;11.166;2023-04-29T08:58:14;8.70;99.90
13072;DHT22;6602;58.934;11.166;2023-04-29T09:09:18;8.80;99.90
13072;DHT22;6602;58.934;11.166;2023-04-29T09:14:44;8.80;99.90
13072;DHT22;6602;58.934;11.166;2023-04-29T09:19:50;9.50;99.90
13072;DHT22;6602;58.934;11.166;2023-04-29T09:24:54;9.70;99.90
13072;DHT22;6602;58.934;11.166;2023-04-29T09:30:13;9.80;99.90
13072;DHT22;6602;58.934;11.166;2023-04-29T09:35:27;10.10;99.90
13072;DHT22;6602;58.934;11.166;2023-04-29T09:40:32;10.10;99.90
13072;DHT22;6602;58.934;11.166;2023-04-29T09:45:37;10.40;99.90
13072;DHT22;6602;58.934;11.166;2023-04-29T09:50:42;10.40;99.90
13072;DHT22;6602;58.934;11.166;2023-04-29T10:00:53;10.80;99.90
13072;DHT22;6602;58.934;11.166;2023-04-29T10:05:55;10.80;99.90
13072;DHT22;6602;58.934;11.166;2023-04-29T10:11:04;10.70;99.90
13072;DHT22;6602;58.934;11.166;2023-04-29T10:16:21;10.80;99.90
13072;DHT22;6602;58.934;11.166;2023-04-29T10:21:28;11.20;99.90
13072;DHT22;6602;58.934;11.166;2023-04-29T10:26:33;11.30;99.90
13072;DHT22;6602;58.934;11.166;2023-04-29T10:31:37;11.30;99.90
13072;DHT22;6602;58.934;11.166;2023-04-29T10:36:43;11.50;99.90
13072;DHT22;6602;58.934;11.166;2023-04-29T10:41:45;11.30;99.90
13072;DHT22;6602;58.934;11.166;2023-04-29T10:47:18;11.10;99.90
13072;DHT22;6602;58.934;11.166;2023-04-29T10:52:51;11.30;99.90
13072;DHT22;6602;58.934;11.166;2023-04-29T10:57:54;11.00;99.90
13072;DHT22;6602;58.934;11.166;2023-04-29T11:02:59;11.10;99.90
13072;DHT22;6602;58.934;11.166;2023-04-29T11:08:23;11.20;99.90
13072;DHT22;6602;58.934;11.166;2023-04-29T11:13:27;11.30;99.90
13072;DHT22;6602;58.934;11.166;2023-04-29T11:18:36;11.30;99.90
13072;DHT22;6602;58.934;11.166;2023-04-29T11:23:42;11.50;99.90
13072;DHT22;6602;58.934;11.166;2023-04-29T11:28:50;11.40;99.90
13072;DHT22;6602;58.934;11.166;2023-04-29T11:33:58;11.40;99.90
13072;DHT22;6602;58.934;11.166;2023-04-29T11:39:01;11.30;99.90
13072;DHT22;6602;58.934;11.166;2023-04-29T11:44:03;11.20;99.90
13072;DHT22;6602;58.934;11.166;2023-04-29T11:49:09;11.20;99.90
13072;DHT22;6602;58.934;11.166;2023-04-29T11:54:13;11.10;99.90
13072;DHT22;6602;58.934;11.166;2023-04-29T11:59:17;11.10;99.90
13072;DHT22;6602;58.934;11.166;2023-04-29T12:04:18;11.20;99.90
13072;DHT22;6602;58.934;11.166;2023-04-29T12:09:28;11.20;99.90
13072;DHT22;6602;58.934;11.166;2023-04-29T12:14:47;11.30;99.90
13072;DHT22;6602;58.934;11.166;2023-04-29T12:19:51;11.40;99.90
13072;DHT22;6602;58.934;11.166;2023-04-29T12:24:52;11.40;99.90
13072;DHT22;6602;58.934;11.166;2023-04-29T12:29:59;11.30;99.90
13072;DHT22;6602;58.934;11.166;2023-04-29T12:35:14;11.30;99.90
13072;DHT22;6602;58.934;11.166;2023-04-29T12:40:19;11.20;99.90
13072;DHT22;6602;58.934;11.166;2023-04-29T12:45:28;11.20;99.90
13072;DHT22;6602;58.934;11.166;2023-04-29T12:50:34;11.40;99.90
13072;DHT22;6602;58.934;11.166;2023-04-29T12:55:37;11.20;99.90
13072;DHT22;6602;58.934;11.166;2023-04-29T13:00:38;11.10;99.90
13072;DHT22;6602;58.934;11.166;2023-04-29T13:05:41;11.30;99.90
13072;DHT22;6602;58.934;11.166;2023-04-29T13:10:42;11.20;99.90
13072;DHT22;6602;58.934;11.166;2023-04-29T13:15:44;11.00;99.90
13072;DHT22;6602;58.934;11.166;2023-04-29T13:20:50;11.10;99.90
13072;DHT22;6602;58.934;11.166;2023-04-29T13:26:04;11.00;99.90
13072;DHT22;6602;58.934;11.166;2023-04-29T13:31:14;11.00;99.90
13072;DHT22;6602;58.934;11.166;2023-04-29T13:36:19;10.90;99.90
13072;DHT22;6602;58.934;11.166;2023-04-29T13:41:19;10.90;99.90
13072;DHT22;6602;58.934;11.166;2023-04-29T13:46:23;10.80;99.90
13072;DHT22;6602;58.934;11.166;2023-04-29T13:51:27;10.80;99.90
13072;DHT22;6602;58.934;11.166;2023-04-29T13:56:47;10.70;99.90
13072;DHT22;6602;58.934;11.166;2023-04-29T14:01:48;10.70;99.90
13072;DHT22;6602;58.934;11.166;2023-04-29T14:06:53;10.80;99.90
13072;DHT22;6602;58.934;11.166;2023-04-29T14:11:54;10.80;99.90
13072;DHT22;6602;58.934;11.166;2023-04-29T14:17:14;10.90;99.90
13072;DHT22;6602;58.934;11.166;2023-04-29T14:22:23;11.00;99.90
13072;DHT22;6602;58.934;11.166;2023-04-29T14:27:39;11.00;99.90
13072;DHT22;6602;58.934;11.166;2023-04-29T14:32:40;10.90;99.90
13072;DHT22;6602;58.934;11.166;2023-04-29T14:37:45;11.10;99.90
13072;DHT22;6602;58.934;11.166;2023-04-29T14:43:01;10.40;99.90
13072;DHT22;6602;58.934;11.166;2023-04-29T14:48:03;10.30;99.90
13072;DHT22;6602;58.934;11.166;2023-04-29T14:53:05;10.50;99.90
13072;DHT22;6602;58.934;11.166;2023-04-29T14:58:11;10.30;99.90
13072;DHT22;6602;58.934;11.166;2023-04-29T15:03:14;10.20;99.90
13072;DHT22;6602;58.934;11.166;2023-04-29T15:08:16;10.30;99.90
13072;DHT22;6602;58.934;11.166;2023-04-29T15:13:33;10.60;99.90
13072;DHT22;6602;58.934;11.166;2023-04-29T15:18:52;10.70;99.90
13072;DHT22;6602;58.934;11.166;2023-04-29T15:23:59;10.70;99.90
13072;DHT22;6602;58.934;11.166;2023-04-29T15:29:08;10.70;99.90
13072;DHT22;6602;58.934;11.166;2023-04-29T15:34:20;10.80;99.90
13072;DHT22;6602;58.934;11.166;2023-04-29T15:39:22;10.80;99.90
13072;DHT22;6602;58.934;11.166;2023-04-29T15:44:26;10.80;99.90
13072;DHT22;6602;58.934;11.166;2023-04-29T15:49:27;10.80;99.90
13072;DHT22;6602;58.934;11.166;2023-04-29T15:54:28;10.80;99.90
13072;DHT22;6602;58.934;11.166;2023-04-29T15:59:32;10.80;99.90
13072;DHT22;6602;58.934;11.166;2023-04-29T16:04:46;10.70;99.90
13072;DHT22;6602;58.934;11.166;2023-04-29T16:10:05;10.60;99.90
13072;DHT22;6602;58.934;11.166;2023-04-29T16:15:07;10.50;99.90
13072;DHT22;6602;58.934;11.166;2023-04-29T16:20:10;10.40;99.90
13072;DHT22;6602;58.934;11.166;2023-04-29T16:25:15;10.40;99.90
13072;DHT22;6602;58.934;11.166;2023-04-29T16:30:19;10.40;99.90
13072;DHT22;6602;58.934;11.166;2023-04-29T16:35:46;10.60;99.90
13072;DHT22;6602;58.934;11.166;2023-04-29T16:40:50;10.60;99.90
13072;DHT22;6602;58.934;11.166;2023-04-29T16:46:00;10.60;99.90
13072;DHT22;6602;58.934;11.166;2023-04-29T16:51:02;10.60;99.90
13072;DHT22;6602;58.934;11.166;2023-04-29T16:56:18;10.60;99.90
13072;DHT22;6602;58.934;11.166;2023-04-29T17:01:19;10.40;99.90
13072;DHT22;6602;58.934;11.166;2023-04-29T17:06:20;10.40;99.90
13072;DHT22;6602;58.934;11.166;2023-04-29T17:11:24;10.30;99.90
13072;DHT22;6602;58.934;11.166;2023-04-29T17:16:25;10.30;99.90
13072;DHT22;6602;58.934;11.166;2023-04-29T17:21:31;10.20;99.90
13072;DHT22;6602;58.934;11.166;2023-04-29T17:26:34;10.20;99.90
13072;DHT22;6602;58.934;11.166;2023-04-29T17:31:35;10.20;99.90
13072;DHT22;6602;58.934;11.166;2023-04-29T17:37:02;10.10;99.90
13072;DHT22;6602;58.934;11.166;2023-04-29T17:42:05;10.00;99.90
13072;DHT22;6602;58.934;11.166;2023-04-29T17:47:07;10.00;99.90
13072;DHT22;6602;58.934;11.166;2023-04-29T17:52:16;9.90;99.90
13072;DHT22;6602;58.934;11.166;2023-04-29T17:57:39;9.80;99.90
13072;DHT22;6602;58.934;11.166;2023-04-29T18:03:08;9.70;99.90
13072;DHT22;6602;58.934;11.166;2023-04-29T18:08:11;9.70;99.90
13072;DHT22;6602;58.934;11.166;2023-04-29T18:13:29;9.60;99.90
13072;DHT22;6602;58.934;11.166;2023-04-29T18:18:34;9.50;99.90
13072;DHT22;6602;58.934;11.166;2023-04-29T18:23:41;9.50;99.90
13072;DHT22;6602;58.934;11.166;2023-04-29T18:28:46;9.40;99.90
13072;DHT22;6602;58.934;11.166;2023-04-29T18:33:49;9.40;99.90
13072;DHT22;6602;58.934;11.166;2023-04-29T18:38:51;9.30;99.90
13072;DHT22;6602;58.934;11.166;2023-04-29T18:43:55;9.20;99.90
13072;DHT22;6602;58.934;11.166;2023-04-29T18:49:09;9.10;99.90
13072;DHT22;6602;58.934;11.166;2023-04-29T18:54:21;9.00;99.90
13072;DHT22;6602;58.934;11.166;2023-04-29T18:59:23;8.90;99.90
13072;DHT22;6602;58.934;11.166;2023-04-29T19:04:25;8.80;99.90
13072;DHT22;6602;58.934;11.166;2023-04-29T19:09:26;8.70;99.90
13072;DHT22;6602;58.934;11.166;2023-04-29T19:14:33;8.70;99.90
13072;DHT22;6602;58.934;11.166;2023-04-29T19:19:39;8.60;99.90
13072;DHT22;6602;58.934;11.166;2023-04-29T19:24:42;8.50;99.90
13072;DHT22;6602;58.934;11.166;2023-04-29T19:29:43;8.50;99.90
13072;DHT22;6602;58.934;11.166;2023-04-29T19:34:55;8.40;99.90
13072;DHT22;6602;58.934;11.166;2023-04-29T19:39:58;8.30;99.90
13072;DHT22;6602;58.934;11.166;2023-04-29T19:45:15;8.30;99.90
13072;DHT22;6602;58.934;11.166;2023-04-29T19:50:22;8.20;99.90
13072;DHT22;6602;58.934;11.166;2023-04-29T19:55:23;8.20;99.90
13072;DHT22;6602;58.934;11.166;2023-04-29T20:00:37;8.10;99.90
13072;DHT22;6602;58.934;11.166;2023-04-29T20:05:38;8.10;99.90
13072;DHT22;6602;58.934;11.166;2023-04-29T20:10:47;8.00;99.90
13072;DHT22;6602;58.934;11.166;2023-04-29T20:15:47;8.00;99.90
13072;DHT22;6602;58.934;11.166;2023-04-29T20:20:49;7.90;99.90
13072;DHT22;6602;58.934;11.166;2023-04-29T20:25:50;7.80;99.90
13072;DHT22;6602;58.934;11.166;2023-04-29T20:30:52;7.80;99.90
13072;DHT22;6602;58.934;11.166;2023-04-29T20:35:54;7.70;99.90
13072;DHT22;6602;58.934;11.166;2023-04-29T20:40:57;7.70;99.90
13072;DHT22;6602;58.934;11.166;2023-04-29T20:45:59;7.70;99.90
13072;DHT22;6602;58.934;11.166;2023-04-29T20:51:05;7.60;99.90
13072;DHT22;6602;58.934;11.166;2023-04-29T20:56:06;7.60;99.90
13072;DHT22;6602;58.934;11.166;2023-04-29T21:01:15;7.50;99.90
13072;DHT22;6602;58.934;11.166;2023-04-29T21:06:19;7.50;99.90
13072;DHT22;6602;58.934;11.166;2023-04-29T21:11:20;7.50;99.90
13072;DHT22;6602;58.934;11.166;2023-04-29T21:16:24;7.40;99.90
13072;DHT22;6602;58.934;11.166;2023-04-29T21:21:25;7.40;99.90
13072;DHT22;6602;58.934;11.166;2023-04-29T21:26:38;7.30;99.90
13072;DHT22;6602;58.934;11.166;2023-04-29T21:31:46;7.30;99.90
13072;DHT22;6602;58.934;11.166;2023-04-29T21:36:50;7.20;99.90
13072;DHT22;6602;58.934;11.166;2023-04-29T21:42:01;7.20;99.90
13072;DHT22;6602;58.934;11.166;2023-04-29T21:47:05;7.20;99.90
13072;DHT22;6602;58.934;11.166;2023-04-29T21:52:10;7.10;99.90
13072;DHT22;6602;58.934;11.166;2023-04-29T21:57:16;7.10;99.90
13072;DHT22;6602;58.934;11.166;2023-04-29T22:02:17;7.00;99.90
13072;DHT22;6602;58.934;11.166;2023-04-29T22:07:38;7.00;99.90
13072;DHT22;6602;58.934;11.166;2023-04-29T22:12:38;7.00;99.90
13072;DHT22;6602;58.934;11.166;2023-04-29T22:17:41;7.00;99.90
13072;DHT22;6602;58.934;11.166;2023-04-29T22:22:42;6.90;99.90
13072;DHT22;6602;58.934;11.166;2023-04-29T22:27:49;6.90;99.90
13072;DHT22;6602;58.934;11.166;2023-04-29T22:32:50;6.80;99.90
13072;DHT22;6602;58.934;11.166;2023-04-29T22:37:53;6.80;99.90
13072;DHT22;6602;58.934;11.166;2023-04-29T22:42:54;6.80;99.90
13072;DHT22;6602;58.934;11.166;2023-04-29T22:47:58;6.70;99.90
13072;DHT22;6602;58.934;11.166;2023-04-29T22:53:07;6.70;99.90
13072;DHT22;6602;58.934;11.166;2023-04-29T22:58:11;6.60;99.90
13072;DHT22;6602;58.934;11.166;2023-04-29T23:03:15;6.50;99.90
13072;DHT22;6602;58.934;11.166;2023-04-29T23:08:35;6.50;99.90
13072;DHT22;6602;58.934;11.166;2023-04-29T23:13:39;6.50;99.90
13072;DHT22;6602;58.934;11.166;2023-04-29T23:18:46;6.40;99.90
13072;DHT22;6602;58.934;11.166;2023-04-29T23:23:47;6.40;99.90
13072;DHT22;6602;58.934;11.166;2023-04-29T23:28:52;6.30;99.90
13072;DHT22;6602;58.934;11.166;2023-04-29T23:33:58;6.30;99.90
13072;DHT22;6602;58.934;11.166;2023-04-29T23:38:59;6.20;99.90
13072;DHT22;6602;58.934;11.166;2023-04-29T23:44:00;6.20;99.90
13072;DHT22;6602;58.934;11.166;2023-04-29T23:49:01;6.20;99.90
13072;DHT22;6602;58.934;11.166;2023-04-29T23:54:15;6.10;99.90
13072;DHT22;6602;58.934;11.166;2023-04-29T23:59:16;6.00;99.90
